sensor_id;sensor_type;location;lat;lon;timestamp;P1;durP1;ratioP1;P2;durP2;ratioP2
2772;SDS011;1394;47.044;15.744;2023-03-20T00:01:10;26.57;;;4.33;;
2772;SDS011;1394;47.044;15.744;2023-03-20T00:03:39;26.73;;;4.00;;
2772;SDS011;1394;47.044;15.744;2023-03-20T00:06:11;28.07;;;5.33;;
2772;SDS011;1394;47.044;15.744;2023-03-20T00:08:38;27.07;;;4.67;;
2772;SDS011;1394;47.044;15.744;2023-03-20T00:11:07;28.40;;;5.57;;
2772;SDS011;1394;47.044;15.744;2023-03-20T00:13:37;29.07;;;5.40;;
2772;SDS011;1394;47.044;15.744;2023-03-20T00:16:09;28.53;;;6.30;;
2772;SDS011;1394;47.044;15.744;2023-03-20T00:18:37;28.13;;;5.30;;
2772;SDS011;1394;47.044;15.744;2023-03-20T00:21:07;26.17;;;4.20;;
2772;SDS011;1394;47.044;15.744;2023-03-20T00:23:36;28.17;;;4.43;;
2772;SDS011;1394;47.044;15.744;2023-03-20T00:26:07;27.27;;;4.47;;
2772;SDS011;1394;47.044;15.744;2023-03-20T00:28:36;26.87;;;4.40;;
2772;SDS011;1394;47.044;15.744;2023-03-20T00:31:09;26.67;;;4.30;;
2772;SDS011;1394;47.044;15.744;2023-03-20T00:33:39;26.40;;;4.30;;
2772;SDS011;1394;47.044;15.744;2023-03-20T00:36:08;26.80;;;4.30;;
2772;SDS011;1394;47.044;15.744;2023-03-20T00:38:35;27.40;;;4.63;;
2772;SDS011;1394;47.044;15.744;2023-03-20T00:41:02;28.73;;;4.00;;
2772;SDS011;1394;47.044;15.744;2023-03-20T00:43:38;27.03;;;4.57;;
2772;SDS011;1394;47.044;15.744;2023-03-20T00:46:07;27.37;;;4.13;;
2772;SDS011;1394;47.044;15.744;2023-03-20T00:48:39;26.50;;;3.83;;
2772;SDS011;1394;47.044;15.744;2023-03-20T00:51:07;27.57;;;4.77;;
2772;SDS011;1394;47.044;15.744;2023-03-20T00:53:34;26.50;;;4.00;;
2772;SDS011;1394;47.044;15.744;2023-03-20T00:56:03;26.90;;;4.20;;
2772;SDS011;1394;47.044;15.744;2023-03-20T00:58:30;27.10;;;4.10;;
2772;SDS011;1394;47.044;15.744;2023-03-20T01:00:57;27.20;;;4.67;;
2772;SDS011;1394;47.044;15.744;2023-03-20T01:03:26;27.70;;;4.63;;
2772;SDS011;1394;47.044;15.744;2023-03-20T01:05:56;29.33;;;5.00;;
2772;SDS011;1394;47.044;15.744;2023-03-20T01:08:24;26.83;;;4.17;;
2772;SDS011;1394;47.044;15.744;2023-03-20T01:10:52;27.27;;;5.03;;
2772;SDS011;1394;47.044;15.744;2023-03-20T01:13:21;26.90;;;4.23;;
2772;SDS011;1394;47.044;15.744;2023-03-20T01:15:49;27.40;;;5.13;;
2772;SDS011;1394;47.044;15.744;2023-03-20T01:18:21;28.07;;;5.00;;
2772;SDS011;1394;47.044;15.744;2023-03-20T01:20:50;27.70;;;5.17;;
2772;SDS011;1394;47.044;15.744;2023-03-20T01:23:18;26.57;;;4.30;;
2772;SDS011;1394;47.044;15.744;2023-03-20T01:25:47;27.97;;;5.60;;
2772;SDS011;1394;47.044;15.744;2023-03-20T01:28:15;27.93;;;4.73;;
2772;SDS011;1394;47.044;15.744;2023-03-20T01:30:43;27.77;;;5.40;;
2772;SDS011;1394;47.044;15.744;2023-03-20T01:33:11;30.43;;;5.47;;
2772;SDS011;1394;47.044;15.744;2023-03-20T01:35:39;28.80;;;5.50;;
2772;SDS011;1394;47.044;15.744;2023-03-20T01:38:12;27.00;;;4.73;;
2772;SDS011;1394;47.044;15.744;2023-03-20T01:40:46;27.50;;;5.60;;
2772;SDS011;1394;47.044;15.744;2023-03-20T01:43:15;27.33;;;5.37;;
2772;SDS011;1394;47.044;15.744;2023-03-20T01:45:45;28.30;;;5.50;;
2772;SDS011;1394;47.044;15.744;2023-03-20T01:48:15;27.03;;;5.43;;
2772;SDS011;1394;47.044;15.744;2023-03-20T01:50:43;28.30;;;5.30;;
2772;SDS011;1394;47.044;15.744;2023-03-20T01:53:12;27.00;;;5.23;;
2772;SDS011;1394;47.044;15.744;2023-03-20T01:55:41;27.17;;;4.33;;
2772;SDS011;1394;47.044;15.744;2023-03-20T01:58:11;27.37;;;4.43;;
2772;SDS011;1394;47.044;15.744;2023-03-20T02:00:39;27.80;;;5.10;;
2772;SDS011;1394;47.044;15.744;2023-03-20T02:03:06;27.20;;;5.03;;
2772;SDS011;1394;47.044;15.744;2023-03-20T02:05:36;26.50;;;4.50;;
2772;SDS011;1394;47.044;15.744;2023-03-20T02:08:07;27.30;;;4.90;;
2772;SDS011;1394;47.044;15.744;2023-03-20T02:10:40;27.27;;;5.37;;
2772;SDS011;1394;47.044;15.744;2023-03-20T02:13:08;27.23;;;4.97;;
2772;SDS011;1394;47.044;15.744;2023-03-20T02:15:50;27.20;;;4.93;;
2772;SDS011;1394;47.044;15.744;2023-03-20T02:18:18;27.20;;;4.90;;
2772;SDS011;1394;47.044;15.744;2023-03-20T02:20:49;26.80;;;5.20;;
2772;SDS011;1394;47.044;15.744;2023-03-20T02:23:29;26.27;;;4.40;;
2772;SDS011;1394;47.044;15.744;2023-03-20T02:26:06;26.57;;;4.43;;
2772;SDS011;1394;47.044;15.744;2023-03-20T02:31:51;26.63;;;4.00;;
2772;SDS011;1394;47.044;15.744;2023-03-20T02:39:58;26.90;;;4.47;;
2772;SDS011;1394;47.044;15.744;2023-03-20T02:42:30;26.60;;;3.97;;
2772;SDS011;1394;47.044;15.744;2023-03-20T02:45:02;27.70;;;4.50;;
2772;SDS011;1394;47.044;15.744;2023-03-20T02:47:35;26.67;;;4.17;;
2772;SDS011;1394;47.044;15.744;2023-03-20T02:50:06;26.90;;;4.30;;
2772;SDS011;1394;47.044;15.744;2023-03-20T02:52:40;28.10;;;5.40;;
2772;SDS011;1394;47.044;15.744;2023-03-20T02:55:12;27.23;;;5.07;;
2772;SDS011;1394;47.044;15.744;2023-03-20T02:57:42;26.77;;;4.60;;
2772;SDS011;1394;47.044;15.744;2023-03-20T03:00:14;28.10;;;3.93;;
2772;SDS011;1394;47.044;15.744;2023-03-20T03:02:47;26.77;;;4.37;;
2772;SDS011;1394;47.044;15.744;2023-03-20T03:05:18;27.13;;;4.20;;
2772;SDS011;1394;47.044;15.744;2023-03-20T03:07:47;26.77;;;4.67;;
2772;SDS011;1394;47.044;15.744;2023-03-20T03:10:18;27.67;;;4.97;;
2772;SDS011;1394;47.044;15.744;2023-03-20T03:12:47;27.03;;;4.90;;
2772;SDS011;1394;47.044;15.744;2023-03-20T03:15:16;26.77;;;4.63;;
2772;SDS011;1394;47.044;15.744;2023-03-20T03:17:44;27.17;;;4.57;;
2772;SDS011;1394;47.044;15.744;2023-03-20T03:20:14;28.53;;;4.60;;
2772;SDS011;1394;47.044;15.744;2023-03-20T03:22:44;26.33;;;3.97;;
2772;SDS011;1394;47.044;15.744;2023-03-20T03:25:11;27.40;;;4.73;;
2772;SDS011;1394;47.044;15.744;2023-03-20T03:27:40;28.20;;;5.70;;
2772;SDS011;1394;47.044;15.744;2023-03-20T03:30:11;26.90;;;5.23;;
2772;SDS011;1394;47.044;15.744;2023-03-20T03:32:40;28.53;;;5.07;;
2772;SDS011;1394;47.044;15.744;2023-03-20T03:35:12;26.87;;;4.77;;
2772;SDS011;1394;47.044;15.744;2023-03-20T03:37:42;27.07;;;4.70;;
2772;SDS011;1394;47.044;15.744;2023-03-20T03:40:14;27.50;;;5.20;;
2772;SDS011;1394;47.044;15.744;2023-03-20T03:42:48;27.00;;;5.33;;
2772;SDS011;1394;47.044;15.744;2023-03-20T03:45:17;27.20;;;4.70;;
2772;SDS011;1394;47.044;15.744;2023-03-20T03:47:49;26.70;;;4.23;;
2772;SDS011;1394;47.044;15.744;2023-03-20T03:50:18;26.60;;;4.50;;
2772;SDS011;1394;47.044;15.744;2023-03-20T03:52:46;26.70;;;4.53;;
2772;SDS011;1394;47.044;15.744;2023-03-20T03:55:18;26.83;;;4.50;;
2772;SDS011;1394;47.044;15.744;2023-03-20T03:57:47;26.67;;;4.10;;
2772;SDS011;1394;47.044;15.744;2023-03-20T04:00:17;26.80;;;4.70;;
2772;SDS011;1394;47.044;15.744;2023-03-20T04:02:45;26.60;;;4.50;;
2772;SDS011;1394;47.044;15.744;2023-03-20T04:05:13;26.77;;;4.30;;
2772;SDS011;1394;47.044;15.744;2023-03-20T04:07:43;26.90;;;5.00;;
2772;SDS011;1394;47.044;15.744;2023-03-20T04:10:10;26.87;;;4.73;;
2772;SDS011;1394;47.044;15.744;2023-03-20T04:12:38;26.67;;;4.60;;
2772;SDS011;1394;47.044;15.744;2023-03-20T04:15:09;26.67;;;4.93;;
2772;SDS011;1394;47.044;15.744;2023-03-20T04:17:36;26.47;;;4.50;;
2772;SDS011;1394;47.044;15.744;2023-03-20T04:20:04;26.83;;;4.43;;
2772;SDS011;1394;47.044;15.744;2023-03-20T04:22:31;27.07;;;4.23;;
2772;SDS011;1394;47.044;15.744;2023-03-20T04:24:59;26.37;;;4.17;;
2772;SDS011;1394;47.044;15.744;2023-03-20T04:27:28;28.43;;;5.00;;
2772;SDS011;1394;47.044;15.744;2023-03-20T04:29:55;29.60;;;7.10;;
2772;SDS011;1394;47.044;15.744;2023-03-20T04:32:24;28.70;;;5.80;;
2772;SDS011;1394;47.044;15.744;2023-03-20T04:34:51;28.87;;;6.00;;
2772;SDS011;1394;47.044;15.744;2023-03-20T04:37:18;29.53;;;6.87;;
2772;SDS011;1394;47.044;15.744;2023-03-20T04:39:47;29.60;;;6.23;;
2772;SDS011;1394;47.044;15.744;2023-03-20T04:42:15;29.20;;;6.30;;
2772;SDS011;1394;47.044;15.744;2023-03-20T04:44:42;28.63;;;5.90;;
2772;SDS011;1394;47.044;15.744;2023-03-20T04:47:09;28.20;;;5.50;;
2772;SDS011;1394;47.044;15.744;2023-03-20T04:49:37;27.80;;;6.00;;
2772;SDS011;1394;47.044;15.744;2023-03-20T04:52:07;26.70;;;4.53;;
2772;SDS011;1394;47.044;15.744;2023-03-20T04:54:35;27.30;;;4.30;;
2772;SDS011;1394;47.044;15.744;2023-03-20T04:57:02;26.67;;;4.77;;
2772;SDS011;1394;47.044;15.744;2023-03-20T04:59:30;27.03;;;4.70;;
2772;SDS011;1394;47.044;15.744;2023-03-20T05:01:57;26.90;;;4.30;;
2772;SDS011;1394;47.044;15.744;2023-03-20T05:04:24;27.03;;;4.70;;
2772;SDS011;1394;47.044;15.744;2023-03-20T05:06:53;28.30;;;4.90;;
2772;SDS011;1394;47.044;15.744;2023-03-20T05:09:20;27.47;;;4.93;;
2772;SDS011;1394;47.044;15.744;2023-03-20T05:11:49;26.80;;;4.60;;
2772;SDS011;1394;47.044;15.744;2023-03-20T05:14:17;26.73;;;4.50;;
2772;SDS011;1394;47.044;15.744;2023-03-20T05:16:44;26.80;;;4.37;;
2772;SDS011;1394;47.044;15.744;2023-03-20T05:19:12;26.97;;;4.70;;
2772;SDS011;1394;47.044;15.744;2023-03-20T05:21:39;28.23;;;4.40;;
2772;SDS011;1394;47.044;15.744;2023-03-20T05:24:08;27.40;;;5.27;;
2772;SDS011;1394;47.044;15.744;2023-03-20T05:26:35;26.53;;;4.50;;
2772;SDS011;1394;47.044;15.744;2023-03-20T05:29:02;27.40;;;4.50;;
2772;SDS011;1394;47.044;15.744;2023-03-20T05:31:30;27.57;;;4.57;;
2772;SDS011;1394;47.044;15.744;2023-03-20T05:33:58;27.37;;;4.50;;
2772;SDS011;1394;47.044;15.744;2023-03-20T05:36:26;27.20;;;4.73;;
2772;SDS011;1394;47.044;15.744;2023-03-20T05:38:53;27.43;;;4.70;;
2772;SDS011;1394;47.044;15.744;2023-03-20T05:41:23;27.00;;;4.40;;
2772;SDS011;1394;47.044;15.744;2023-03-20T05:43:51;27.33;;;4.80;;
2772;SDS011;1394;47.044;15.744;2023-03-20T05:46:18;26.70;;;4.40;;
2772;SDS011;1394;47.044;15.744;2023-03-20T05:48:46;27.07;;;4.23;;
2772;SDS011;1394;47.044;15.744;2023-03-20T05:51:14;27.00;;;4.33;;
2772;SDS011;1394;47.044;15.744;2023-03-20T05:53:43;28.00;;;5.27;;
2772;SDS011;1394;47.044;15.744;2023-03-20T05:56:10;26.93;;;4.53;;
2772;SDS011;1394;47.044;15.744;2023-03-20T05:58:39;27.90;;;4.50;;
2772;SDS011;1394;47.044;15.744;2023-03-20T06:01:08;28.40;;;4.80;;
2772;SDS011;1394;47.044;15.744;2023-03-20T06:03:35;28.03;;;5.30;;
2772;SDS011;1394;47.044;15.744;2023-03-20T06:06:03;26.70;;;4.23;;
2772;SDS011;1394;47.044;15.744;2023-03-20T06:08:30;31.40;;;6.73;;
2772;SDS011;1394;47.044;15.744;2023-03-20T06:10:57;31.10;;;6.77;;
2772;SDS011;1394;47.044;15.744;2023-03-20T06:13:25;31.23;;;6.53;;
2772;SDS011;1394;47.044;15.744;2023-03-20T06:15:53;31.70;;;8.27;;
2772;SDS011;1394;47.044;15.744;2023-03-20T06:18:20;29.53;;;5.77;;
2772;SDS011;1394;47.044;15.744;2023-03-20T06:20:50;26.97;;;5.17;;
2772;SDS011;1394;47.044;15.744;2023-03-20T06:23:18;27.30;;;5.20;;
2772;SDS011;1394;47.044;15.744;2023-03-20T06:25:45;27.57;;;5.30;;
2772;SDS011;1394;47.044;15.744;2023-03-20T06:28:12;27.77;;;4.97;;
2772;SDS011;1394;47.044;15.744;2023-03-20T06:30:40;27.53;;;4.50;;
2772;SDS011;1394;47.044;15.744;2023-03-20T06:33:09;26.50;;;4.20;;
2772;SDS011;1394;47.044;15.744;2023-03-20T06:35:39;27.70;;;4.83;;
2772;SDS011;1394;47.044;15.744;2023-03-20T06:38:06;27.50;;;4.60;;
2772;SDS011;1394;47.044;15.744;2023-03-20T06:40:38;27.50;;;5.07;;
2772;SDS011;1394;47.044;15.744;2023-03-20T06:43:07;27.90;;;4.47;;
2772;SDS011;1394;47.044;15.744;2023-03-20T06:45:36;27.90;;;4.60;;
2772;SDS011;1394;47.044;15.744;2023-03-20T06:48:04;27.40;;;4.30;;
2772;SDS011;1394;47.044;15.744;2023-03-20T06:50:33;26.90;;;4.43;;
2772;SDS011;1394;47.044;15.744;2023-03-20T06:53:00;27.50;;;4.60;;
2772;SDS011;1394;47.044;15.744;2023-03-20T06:55:29;28.60;;;5.10;;
2772;SDS011;1394;47.044;15.744;2023-03-20T06:57:56;27.20;;;4.37;;
2772;SDS011;1394;47.044;15.744;2023-03-20T07:00:24;27.07;;;4.40;;
2772;SDS011;1394;47.044;15.744;2023-03-20T07:02:52;26.87;;;4.30;;
2772;SDS011;1394;47.044;15.744;2023-03-20T07:05:20;27.17;;;4.50;;
2772;SDS011;1394;47.044;15.744;2023-03-20T07:07:49;29.17;;;4.57;;
2772;SDS011;1394;47.044;15.744;2023-03-20T07:10:19;26.90;;;4.20;;
2772;SDS011;1394;47.044;15.744;2023-03-20T07:12:47;27.63;;;4.30;;
2772;SDS011;1394;47.044;15.744;2023-03-20T07:15:15;27.67;;;4.47;;
2772;SDS011;1394;47.044;15.744;2023-03-20T07:17:42;26.93;;;4.57;;
2772;SDS011;1394;47.044;15.744;2023-03-20T07:20:12;27.33;;;4.67;;
2772;SDS011;1394;47.044;15.744;2023-03-20T07:22:41;29.27;;;3.93;;
2772;SDS011;1394;47.044;15.744;2023-03-20T07:25:15;26.13;;;3.83;;
2772;SDS011;1394;47.044;15.744;2023-03-20T07:27:43;27.33;;;4.57;;
2772;SDS011;1394;47.044;15.744;2023-03-20T07:30:15;27.23;;;4.23;;
2772;SDS011;1394;47.044;15.744;2023-03-20T07:32:43;26.13;;;4.00;;
2772;SDS011;1394;47.044;15.744;2023-03-20T07:35:10;26.37;;;4.20;;
2772;SDS011;1394;47.044;15.744;2023-03-20T07:37:38;27.37;;;4.80;;
2772;SDS011;1394;47.044;15.744;2023-03-20T07:40:05;26.90;;;4.40;;
2772;SDS011;1394;47.044;15.744;2023-03-20T07:42:34;27.13;;;4.20;;
2772;SDS011;1394;47.044;15.744;2023-03-20T07:45:01;26.90;;;4.17;;
2772;SDS011;1394;47.044;15.744;2023-03-20T07:47:36;26.77;;;4.10;;
2772;SDS011;1394;47.044;15.744;2023-03-20T07:50:04;26.77;;;4.10;;
2772;SDS011;1394;47.044;15.744;2023-03-20T07:52:31;26.87;;;4.30;;
2772;SDS011;1394;47.044;15.744;2023-03-20T07:55:00;27.93;;;4.33;;
2772;SDS011;1394;47.044;15.744;2023-03-20T07:57:28;28.20;;;4.30;;
2772;SDS011;1394;47.044;15.744;2023-03-20T07:59:56;27.47;;;3.93;;
2772;SDS011;1394;47.044;15.744;2023-03-20T08:02:24;27.90;;;4.73;;
2772;SDS011;1394;47.044;15.744;2023-03-20T08:04:53;26.47;;;4.10;;
2772;SDS011;1394;47.044;15.744;2023-03-20T08:07:20;26.77;;;4.13;;
2772;SDS011;1394;47.044;15.744;2023-03-20T08:09:47;27.30;;;4.20;;
2772;SDS011;1394;47.044;15.744;2023-03-20T08:12:14;27.60;;;4.40;;
2772;SDS011;1394;47.044;15.744;2023-03-20T08:14:42;26.97;;;4.10;;
2772;SDS011;1394;47.044;15.744;2023-03-20T08:17:12;27.53;;;4.30;;
2772;SDS011;1394;47.044;15.744;2023-03-20T08:19:40;27.47;;;4.43;;
2772;SDS011;1394;47.044;15.744;2023-03-20T08:22:10;27.40;;;4.47;;
2772;SDS011;1394;47.044;15.744;2023-03-20T08:24:39;27.80;;;4.53;;
2772;SDS011;1394;47.044;15.744;2023-03-20T08:27:06;27.73;;;4.80;;
2772;SDS011;1394;47.044;15.744;2023-03-20T08:29:34;28.20;;;4.90;;
2772;SDS011;1394;47.044;15.744;2023-03-20T08:32:02;28.27;;;4.70;;
2772;SDS011;1394;47.044;15.744;2023-03-20T08:34:31;28.40;;;4.27;;
2772;SDS011;1394;47.044;15.744;2023-03-20T08:36:58;27.70;;;4.27;;
2772;SDS011;1394;47.044;15.744;2023-03-20T08:39:25;27.17;;;4.53;;
2772;SDS011;1394;47.044;15.744;2023-03-20T08:41:54;28.63;;;4.20;;
2772;SDS011;1394;47.044;15.744;2023-03-20T08:44:21;28.00;;;4.40;;
2772;SDS011;1394;47.044;15.744;2023-03-20T08:46:49;27.77;;;3.90;;
2772;SDS011;1394;47.044;15.744;2023-03-20T08:49:17;27.20;;;4.50;;
2772;SDS011;1394;47.044;15.744;2023-03-20T08:51:46;28.00;;;5.30;;
2772;SDS011;1394;47.044;15.744;2023-03-20T08:54:15;27.73;;;4.50;;
2772;SDS011;1394;47.044;15.744;2023-03-20T08:56:42;26.53;;;4.13;;
2772;SDS011;1394;47.044;15.744;2023-03-20T08:59:11;27.13;;;4.20;;
2772;SDS011;1394;47.044;15.744;2023-03-20T09:01:39;27.10;;;4.20;;
2772;SDS011;1394;47.044;15.744;2023-03-20T09:04:06;27.40;;;4.67;;
2772;SDS011;1394;47.044;15.744;2023-03-20T09:06:35;28.70;;;5.10;;
2772;SDS011;1394;47.044;15.744;2023-03-20T09:09:06;27.50;;;4.20;;
2772;SDS011;1394;47.044;15.744;2023-03-20T09:11:35;28.00;;;4.60;;
2772;SDS011;1394;47.044;15.744;2023-03-20T09:14:02;27.57;;;4.40;;
2772;SDS011;1394;47.044;15.744;2023-03-20T09:16:30;27.30;;;3.97;;
2772;SDS011;1394;47.044;15.744;2023-03-20T09:18:57;27.40;;;3.50;;
2772;SDS011;1394;47.044;15.744;2023-03-20T09:21:25;28.90;;;4.37;;
2772;SDS011;1394;47.044;15.744;2023-03-20T09:23:52;27.40;;;3.63;;
2772;SDS011;1394;47.044;15.744;2023-03-20T09:26:23;29.27;;;5.80;;
2772;SDS011;1394;47.044;15.744;2023-03-20T09:28:51;28.37;;;4.77;;
2772;SDS011;1394;47.044;15.744;2023-03-20T09:31:18;29.60;;;3.40;;
2772;SDS011;1394;47.044;15.744;2023-03-20T09:33:47;33.57;;;4.00;;
2772;SDS011;1394;47.044;15.744;2023-03-20T09:36:14;28.07;;;4.90;;
2772;SDS011;1394;47.044;15.744;2023-03-20T09:38:41;27.73;;;3.80;;
2772;SDS011;1394;47.044;15.744;2023-03-20T09:41:12;27.60;;;4.00;;
2772;SDS011;1394;47.044;15.744;2023-03-20T09:43:48;30.03;;;3.90;;
2772;SDS011;1394;47.044;15.744;2023-03-20T09:46:28;27.20;;;3.30;;
2772;SDS011;1394;47.044;15.744;2023-03-20T09:49:01;27.20;;;3.60;;
2772;SDS011;1394;47.044;15.744;2023-03-20T09:51:35;28.90;;;3.80;;
2772;SDS011;1394;47.044;15.744;2023-03-20T09:54:03;28.60;;;4.40;;
2772;SDS011;1394;47.044;15.744;2023-03-20T09:56:32;27.97;;;4.30;;
2772;SDS011;1394;47.044;15.744;2023-03-20T09:59:04;27.20;;;3.50;;
2772;SDS011;1394;47.044;15.744;2023-03-20T10:01:34;29.63;;;3.90;;
2772;SDS011;1394;47.044;15.744;2023-03-20T10:04:06;26.87;;;3.27;;
2772;SDS011;1394;47.044;15.744;2023-03-20T10:06:37;26.37;;;2.83;;
2772;SDS011;1394;47.044;15.744;2023-03-20T10:09:09;26.80;;;3.20;;
2772;SDS011;1394;47.044;15.744;2023-03-20T10:11:51;28.50;;;3.40;;
2772;SDS011;1394;47.044;15.744;2023-03-20T10:14:23;26.90;;;3.30;;
2772;SDS011;1394;47.044;15.744;2023-03-20T10:16:56;27.37;;;3.00;;
2772;SDS011;1394;47.044;15.744;2023-03-20T10:19:27;27.20;;;3.60;;
2772;SDS011;1394;47.044;15.744;2023-03-20T10:21:56;26.93;;;3.20;;
2772;SDS011;1394;47.044;15.744;2023-03-20T10:24:27;29.37;;;3.23;;
2772;SDS011;1394;47.044;15.744;2023-03-20T10:26:57;27.30;;;3.60;;
2772;SDS011;1394;47.044;15.744;2023-03-20T10:29:31;27.20;;;3.37;;
2772;SDS011;1394;47.044;15.744;2023-03-20T10:32:02;27.27;;;3.40;;
2772;SDS011;1394;47.044;15.744;2023-03-20T10:34:39;28.00;;;3.20;;
2772;SDS011;1394;47.044;15.744;2023-03-20T10:37:14;26.77;;;3.13;;
2772;SDS011;1394;47.044;15.744;2023-03-20T10:39:49;27.07;;;3.50;;
2772;SDS011;1394;47.044;15.744;2023-03-20T10:45:03;27.03;;;3.53;;
2772;SDS011;1394;47.044;15.744;2023-03-20T10:47:33;26.97;;;3.50;;
2772;SDS011;1394;47.044;15.744;2023-03-20T10:50:06;26.87;;;3.13;;
2772;SDS011;1394;47.044;15.744;2023-03-20T10:52:37;27.10;;;2.87;;
2772;SDS011;1394;47.044;15.744;2023-03-20T10:55:07;26.80;;;2.73;;
2772;SDS011;1394;47.044;15.744;2023-03-20T10:57:38;26.90;;;3.00;;
2772;SDS011;1394;47.044;15.744;2023-03-20T11:00:13;26.90;;;3.30;;
2772;SDS011;1394;47.044;15.744;2023-03-20T11:02:44;26.87;;;3.27;;
2772;SDS011;1394;47.044;15.744;2023-03-20T11:05:18;27.20;;;3.00;;
2772;SDS011;1394;47.044;15.744;2023-03-20T11:07:48;26.90;;;3.10;;
2772;SDS011;1394;47.044;15.744;2023-03-20T11:10:18;26.43;;;2.87;;
2772;SDS011;1394;47.044;15.744;2023-03-20T11:12:48;27.30;;;3.10;;
2772;SDS011;1394;47.044;15.744;2023-03-20T11:15:22;26.50;;;2.53;;
2772;SDS011;1394;47.044;15.744;2023-03-20T11:17:54;26.33;;;2.50;;
2772;SDS011;1394;47.044;15.744;2023-03-20T11:20:22;26.37;;;2.70;;
2772;SDS011;1394;47.044;15.744;2023-03-20T11:22:49;26.83;;;2.80;;
2772;SDS011;1394;47.044;15.744;2023-03-20T11:25:24;26.83;;;2.80;;
2772;SDS011;1394;47.044;15.744;2023-03-20T11:27:55;26.37;;;3.00;;
2772;SDS011;1394;47.044;15.744;2023-03-20T11:30:25;26.30;;;2.60;;
2772;SDS011;1394;47.044;15.744;2023-03-20T11:32:53;27.03;;;2.90;;
2772;SDS011;1394;47.044;15.744;2023-03-20T11:35:28;26.60;;;2.63;;
2772;SDS011;1394;47.044;15.744;2023-03-20T11:38:07;26.63;;;3.00;;
2772;SDS011;1394;47.044;15.744;2023-03-20T11:40:36;26.47;;;2.50;;
2772;SDS011;1394;47.044;15.744;2023-03-20T11:43:09;27.13;;;2.83;;
2772;SDS011;1394;47.044;15.744;2023-03-20T11:45:38;26.40;;;2.50;;
2772;SDS011;1394;47.044;15.744;2023-03-20T11:48:13;26.53;;;2.53;;
2772;SDS011;1394;47.044;15.744;2023-03-20T11:50:42;26.87;;;2.87;;
2772;SDS011;1394;47.044;15.744;2023-03-20T11:53:17;26.80;;;3.00;;
2772;SDS011;1394;47.044;15.744;2023-03-20T11:55:56;26.30;;;2.57;;
2772;SDS011;1394;47.044;15.744;2023-03-20T11:58:24;26.70;;;3.00;;
2772;SDS011;1394;47.044;15.744;2023-03-20T12:00:56;27.27;;;2.80;;
2772;SDS011;1394;47.044;15.744;2023-03-20T12:03:40;26.67;;;2.40;;
2772;SDS011;1394;47.044;15.744;2023-03-20T12:06:12;27.10;;;2.27;;
2772;SDS011;1394;47.044;15.744;2023-03-20T12:08:40;26.53;;;2.80;;
2772;SDS011;1394;47.044;15.744;2023-03-20T12:11:15;27.17;;;2.50;;
2772;SDS011;1394;47.044;15.744;2023-03-20T12:13:44;26.97;;;2.80;;
2772;SDS011;1394;47.044;15.744;2023-03-20T12:16:18;26.47;;;2.50;;
2772;SDS011;1394;47.044;15.744;2023-03-20T12:18:49;26.40;;;2.43;;
2772;SDS011;1394;47.044;15.744;2023-03-20T12:21:19;29.00;;;2.90;;
2772;SDS011;1394;47.044;15.744;2023-03-20T12:23:50;26.00;;;2.50;;
2772;SDS011;1394;47.044;15.744;2023-03-20T12:26:19;27.20;;;2.80;;
2772;SDS011;1394;47.044;15.744;2023-03-20T12:28:49;26.63;;;2.30;;
2772;SDS011;1394;47.044;15.744;2023-03-20T12:31:21;25.90;;;2.50;;
2772;SDS011;1394;47.044;15.744;2023-03-20T12:33:51;28.37;;;2.93;;
2772;SDS011;1394;47.044;15.744;2023-03-20T12:36:23;26.83;;;2.17;;
2772;SDS011;1394;47.044;15.744;2023-03-20T12:38:54;25.97;;;2.03;;
2772;SDS011;1394;47.044;15.744;2023-03-20T12:41:24;26.30;;;2.17;;
2772;SDS011;1394;47.044;15.744;2023-03-20T12:44:03;28.40;;;2.33;;
2772;SDS011;1394;47.044;15.744;2023-03-20T12:46:40;26.50;;;2.43;;
2772;SDS011;1394;47.044;15.744;2023-03-20T12:49:19;26.43;;;2.27;;
2772;SDS011;1394;47.044;15.744;2023-03-20T12:51:51;26.07;;;2.10;;
2772;SDS011;1394;47.044;15.744;2023-03-20T12:54:24;26.70;;;2.13;;
2772;SDS011;1394;47.044;15.744;2023-03-20T12:56:56;26.13;;;2.30;;
2772;SDS011;1394;47.044;15.744;2023-03-20T12:59:27;28.23;;;2.40;;
2772;SDS011;1394;47.044;15.744;2023-03-20T13:02:02;26.30;;;2.67;;
2772;SDS011;1394;47.044;15.744;2023-03-20T13:04:42;26.20;;;2.50;;
2772;SDS011;1394;47.044;15.744;2023-03-20T13:07:16;26.40;;;2.03;;
2772;SDS011;1394;47.044;15.744;2023-03-20T13:09:50;26.50;;;2.30;;
2772;SDS011;1394;47.044;15.744;2023-03-20T13:12:24;26.60;;;2.30;;
2772;SDS011;1394;47.044;15.744;2023-03-20T13:14:55;25.93;;;2.23;;
2772;SDS011;1394;47.044;15.744;2023-03-20T13:17:28;26.40;;;2.60;;
2772;SDS011;1394;47.044;15.744;2023-03-20T13:20:04;27.17;;;2.60;;
2772;SDS011;1394;47.044;15.744;2023-03-20T13:22:41;26.63;;;2.33;;
2772;SDS011;1394;47.044;15.744;2023-03-20T13:25:18;26.33;;;1.97;;
2772;SDS011;1394;47.044;15.744;2023-03-20T13:27:48;25.80;;;1.80;;
2772;SDS011;1394;47.044;15.744;2023-03-20T13:30:22;26.40;;;2.30;;
2772;SDS011;1394;47.044;15.744;2023-03-20T13:32:53;26.23;;;2.20;;
2772;SDS011;1394;47.044;15.744;2023-03-20T13:35:29;25.90;;;2.03;;
2772;SDS011;1394;47.044;15.744;2023-03-20T13:38:01;26.27;;;2.00;;
2772;SDS011;1394;47.044;15.744;2023-03-20T13:40:31;27.00;;;1.93;;
2772;SDS011;1394;47.044;15.744;2023-03-20T13:43:00;27.47;;;2.30;;
2772;SDS011;1394;47.044;15.744;2023-03-20T13:45:33;26.37;;;2.00;;
2772;SDS011;1394;47.044;15.744;2023-03-20T13:48:04;26.37;;;2.10;;
2772;SDS011;1394;47.044;15.744;2023-03-20T13:50:42;26.47;;;1.83;;
2772;SDS011;1394;47.044;15.744;2023-03-20T13:53:13;26.30;;;1.90;;
2772;SDS011;1394;47.044;15.744;2023-03-20T13:55:47;26.07;;;2.20;;
2772;SDS011;1394;47.044;15.744;2023-03-20T13:58:27;25.80;;;2.00;;
2772;SDS011;1394;47.044;15.744;2023-03-20T14:01:00;26.63;;;2.20;;
2772;SDS011;1394;47.044;15.744;2023-03-20T14:03:33;26.50;;;2.10;;
2772;SDS011;1394;47.044;15.744;2023-03-20T14:06:14;25.90;;;1.80;;
2772;SDS011;1394;47.044;15.744;2023-03-20T14:08:42;25.83;;;1.73;;
2772;SDS011;1394;47.044;15.744;2023-03-20T14:11:14;25.57;;;1.80;;
2772;SDS011;1394;47.044;15.744;2023-03-20T14:13:56;25.90;;;1.70;;
2772;SDS011;1394;47.044;15.744;2023-03-20T14:16:27;26.30;;;1.80;;
2772;SDS011;1394;47.044;15.744;2023-03-20T14:19:05;26.67;;;1.83;;
2772;SDS011;1394;47.044;15.744;2023-03-20T14:21:34;25.97;;;1.63;;
2772;SDS011;1394;47.044;15.744;2023-03-20T14:24:05;25.70;;;1.70;;
2772;SDS011;1394;47.044;15.744;2023-03-20T14:26:34;26.57;;;1.80;;
2772;SDS011;1394;47.044;15.744;2023-03-20T14:29:18;26.43;;;1.77;;
2772;SDS011;1394;47.044;15.744;2023-03-20T14:31:47;25.90;;;2.30;;
2772;SDS011;1394;47.044;15.744;2023-03-20T14:34:20;25.77;;;1.70;;
2772;SDS011;1394;47.044;15.744;2023-03-20T14:36:55;26.87;;;1.67;;
2772;SDS011;1394;47.044;15.744;2023-03-20T14:39:26;27.40;;;3.27;;
2772;SDS011;1394;47.044;15.744;2023-03-20T14:42:01;25.67;;;1.80;;
2772;SDS011;1394;47.044;15.744;2023-03-20T14:44:35;25.60;;;1.57;;
2772;SDS011;1394;47.044;15.744;2023-03-20T14:47:05;26.00;;;2.00;;
2772;SDS011;1394;47.044;15.744;2023-03-20T14:49:44;26.10;;;1.90;;
2772;SDS011;1394;47.044;15.744;2023-03-20T14:52:20;29.00;;;5.80;;
2772;SDS011;1394;47.044;15.744;2023-03-20T14:54:51;27.47;;;3.30;;
2772;SDS011;1394;47.044;15.744;2023-03-20T14:57:24;25.73;;;1.60;;
2772;SDS011;1394;47.044;15.744;2023-03-20T14:59:53;25.93;;;1.60;;
2772;SDS011;1394;47.044;15.744;2023-03-20T15:02:23;26.20;;;1.77;;
2772;SDS011;1394;47.044;15.744;2023-03-20T15:04:52;25.67;;;1.23;;
2772;SDS011;1394;47.044;15.744;2023-03-20T15:07:21;27.53;;;1.60;;
2772;SDS011;1394;47.044;15.744;2023-03-20T15:09:50;26.40;;;1.50;;
2772;SDS011;1394;47.044;15.744;2023-03-20T15:12:20;26.87;;;1.57;;
2772;SDS011;1394;47.044;15.744;2023-03-20T15:14:50;26.17;;;1.30;;
2772;SDS011;1394;47.044;15.744;2023-03-20T15:17:19;26.30;;;1.60;;